createdAt,value
2022-09-13T00:01:17.019Z,58.01
2022-09-13T00:03:45.358Z,58.11
2022-09-13T00:06:17.448Z,58.25
2022-09-13T00:08:47.286Z,58.31
2022-09-13T00:11:18.376Z,58.48
2022-09-13T00:13:47.140Z,58.23
2022-09-13T00:16:18.276Z,58.36
2022-09-13T00:18:47.706Z,58.12
2022-09-13T00:21:18.588Z,58.40
2022-09-13T00:23:50.628Z,58.85
2022-09-13T00:26:23.033Z,58.92
2022-09-13T00:28:52.579Z,59.27
2022-09-13T00:31:23.320Z,58.98
2022-09-13T00:33:52.125Z,58.81
2022-09-13T00:36:20.661Z,58.54
2022-09-13T00:38:50.397Z,58.57
2022-09-13T00:41:21.343Z,58.63
2022-09-13T00:43:52.829Z,58.63
2022-09-13T00:46:29.563Z,58.62
2022-09-13T00:49:04.244Z,58.88
2022-09-13T00:51:32.723Z,59.06
2022-09-13T00:54:04.865Z,59.10
2022-09-13T00:56:36.749Z,59.72
2022-09-13T00:59:10.232Z,59.81
2022-09-13T01:01:46.139Z,59.87
2022-09-13T01:04:15.255Z,59.83
2022-09-13T01:06:44.398Z,60.14
2022-09-13T01:09:14.615Z,60.04
2022-09-13T01:11:50.057Z,60.15
2022-09-13T01:14:20.880Z,60.01
2022-09-13T01:16:49.595Z,60.15
2022-09-13T01:19:18.546Z,59.90
2022-09-13T01:22:40.102Z,59.96
2022-09-13T01:25:48.484Z,59.94
2022-09-13T01:28:49.230Z,60.14
2022-09-13T01:31:26.341Z,60.20
2022-09-13T01:34:15.054Z,60.33
2022-09-13T01:37:21.333Z,60.55
2022-09-13T01:40:09.374Z,61.17
2022-09-13T01:42:54.688Z,61.73
2022-09-13T01:45:30.200Z,62.28
2022-09-13T01:48:03.949Z,62.29
2022-09-13T01:50:41.832Z,62.55
2022-09-13T01:53:21.876Z,62.83
2022-09-13T01:56:00.600Z,63.03
2022-09-13T01:58:37.762Z,63.45
2022-09-13T02:01:13.536Z,63.62
2022-09-13T02:03:50.535Z,63.58
2022-09-13T02:06:22.816Z,63.61
2022-09-13T02:08:55.762Z,63.60
2022-09-13T02:11:25.215Z,63.87
2022-09-13T02:14:06.940Z,64.06
2022-09-13T02:16:39.929Z,64.17
2022-09-13T02:19:15.428Z,64.36
2022-09-13T02:21:48.917Z,64.21
2022-09-13T02:24:22.010Z,64.45
2022-09-13T02:26:53.419Z,65.13
2022-09-13T02:29:25.690Z,65.33
2022-09-13T02:31:59.493Z,65.49
2022-09-13T02:34:34.097Z,65.93
2022-09-13T02:37:03.998Z,66.08
2022-09-13T02:39:34.975Z,66.46
2022-09-13T02:42:12.784Z,66.37
2022-09-13T02:44:44.252Z,66.47
2022-09-13T02:47:26.806Z,66.71
2022-09-13T02:50:09.105Z,67.06
2022-09-13T02:52:46.794Z,67.24
2022-09-13T02:55:21.431Z,67.46
2022-09-13T02:58:01.187Z,67.52
2022-09-13T03:00:30.230Z,67.86
2022-09-13T03:03:02.249Z,67.52
2022-09-13T03:05:32.781Z,67.42
2022-09-13T03:08:02.117Z,67.70
2022-09-13T03:10:43.157Z,68.28
2022-09-13T03:13:36.118Z,68.57
2022-09-13T03:16:20.978Z,68.87
2022-09-13T03:19:14.498Z,69.21
2022-09-13T03:22:04.956Z,68.81
2022-09-13T03:24:46.128Z,68.74
2022-09-13T03:27:24.772Z,68.54
2022-09-13T03:30:00.700Z,68.79
2022-09-13T03:32:38.768Z,68.59
2022-09-13T03:35:19.854Z,68.08
2022-09-13T03:37:58.362Z,68.38
2022-09-13T03:40:38.571Z,68.45
2022-09-13T03:43:12.669Z,68.46
2022-09-13T03:45:47.350Z,68.72
2022-09-13T03:48:16.609Z,69.38
2022-09-13T03:50:47.778Z,69.66
2022-09-13T03:53:23.025Z,69.95
2022-09-13T03:55:52.082Z,70.20
2022-09-13T03:58:22.068Z,69.75
2022-09-13T04:00:50.546Z,69.84
2022-09-13T04:03:18.776Z,69.96
2022-09-13T04:05:47.508Z,69.95
2022-09-13T04:08:17.102Z,69.87
2022-09-13T04:10:45.421Z,69.63
2022-09-13T04:13:13.715Z,69.52
2022-09-13T04:15:42.095Z,69.63
2022-09-13T04:18:11.252Z,69.65
2022-09-13T04:20:39.554Z,69.61
2022-09-13T04:23:07.870Z,69.94
2022-09-13T04:25:40.478Z,69.45
2022-09-13T04:28:09.479Z,69.47
2022-09-13T04:30:42.071Z,69.28
2022-09-13T04:33:11.167Z,69.04
2022-09-13T04:35:40.813Z,69.46
2022-09-13T04:38:09.434Z,70.18
2022-09-13T04:40:39.153Z,71.13
2022-09-13T04:43:07.475Z,71.36
2022-09-13T04:45:35.702Z,71.51
2022-09-13T04:48:04.308Z,71.43
2022-09-13T04:50:32.536Z,71.67
2022-09-13T04:53:00.851Z,72.10
2022-09-13T04:55:29.112Z,72.12
2022-09-13T04:57:58.653Z,72.23
2022-09-13T05:00:27.141Z,71.95
2022-09-13T05:02:58.478Z,71.84
2022-09-13T05:05:28.709Z,72.12
2022-09-13T05:07:57.115Z,72.27
2022-09-13T05:10:26.152Z,72.60
2022-09-13T05:12:54.524Z,73.21
2022-09-13T05:15:24.334Z,73.33
2022-09-13T05:17:52.665Z,73.43
2022-09-13T05:20:21.440Z,73.62
2022-09-13T05:22:49.768Z,73.42
2022-09-13T05:25:18.180Z,73.34
2022-09-13T05:27:47.131Z,73.39
2022-09-13T05:30:15.710Z,73.51
2022-09-13T05:32:45.368Z,73.87
2022-09-13T05:35:13.838Z,73.88
2022-09-13T05:37:42.236Z,74.03
2022-09-13T05:40:12.569Z,74.00
2022-09-13T05:42:41.108Z,74.11
2022-09-13T05:45:10.547Z,73.64
2022-09-13T05:47:39.308Z,73.80
2022-09-13T05:50:22.898Z,74.08
2022-09-13T05:52:56.610Z,74.28
2022-09-13T05:55:25.446Z,74.52
2022-09-13T05:57:53.652Z,74.69
2022-09-13T06:00:22.182Z,74.69
2022-09-13T06:02:50.925Z,74.66
2022-09-13T06:05:20.782Z,74.78
2022-09-13T06:07:49.195Z,75.26
2022-09-13T06:10:17.724Z,75.20
2022-09-13T06:12:46.000Z,75.23
2022-09-13T06:15:14.583Z,74.85
2022-09-13T06:17:42.906Z,75.12
2022-09-13T06:20:11.575Z,75.07
2022-09-13T06:22:41.187Z,74.94
2022-09-13T06:25:10.810Z,74.89
2022-09-13T06:27:39.090Z,74.94
2022-09-13T06:30:12.080Z,75.04
2022-09-13T06:32:40.897Z,75.09
2022-09-13T06:35:10.310Z,75.44
2022-09-13T06:37:39.878Z,75.36
2022-09-13T06:40:09.416Z,75.71
2022-09-13T06:42:37.998Z,75.99
2022-09-13T06:45:07.940Z,76.23
2022-09-13T06:47:36.244Z,76.31
2022-09-13T06:50:04.786Z,76.58
2022-09-13T06:52:33.305Z,76.46
2022-09-13T06:55:03.043Z,76.39
2022-09-13T06:57:32.310Z,76.53
2022-09-13T07:00:00.601Z,76.84
2022-09-13T07:02:29.017Z,76.67
2022-09-13T07:04:57.363Z,76.34
2022-09-13T07:07:25.673Z,76.53
2022-09-13T07:09:53.937Z,77.12
2022-09-13T07:12:23.699Z,76.87
2022-09-13T07:14:52.234Z,76.76
2022-09-13T07:17:20.820Z,76.73
2022-09-13T07:19:49.287Z,76.54
2022-09-13T07:22:17.573Z,76.36
2022-09-13T07:24:45.779Z,76.40
2022-09-13T07:27:14.853Z,76.22
2022-09-13T07:29:44.560Z,76.26
2022-09-13T07:32:12.852Z,75.95
2022-09-13T07:34:41.101Z,76.30
2022-09-13T07:37:09.337Z,75.88
2022-09-13T07:39:37.573Z,75.56
2022-09-13T07:42:06.207Z,74.92
2022-09-13T07:44:34.445Z,74.93
2022-09-13T07:47:04.130Z,74.78
2022-09-13T07:49:32.343Z,74.84
2022-09-13T07:52:00.678Z,75.11
2022-09-13T07:54:30.155Z,74.84
2022-09-13T07:56:58.366Z,73.63
2022-09-13T07:59:30.057Z,73.57
2022-09-13T08:01:58.700Z,72.72
2022-09-13T08:04:28.301Z,73.08
2022-09-13T08:06:56.843Z,72.57
2022-09-13T08:09:25.159Z,71.08
2022-09-13T08:11:53.826Z,70.44
2022-09-13T08:14:24.150Z,70.39
2022-09-13T08:16:56.137Z,69.93
2022-09-13T08:19:24.411Z,69.33
2022-09-13T08:21:53.997Z,69.37
2022-09-13T08:24:23.114Z,69.58
2022-09-13T08:26:52.109Z,68.65
2022-09-13T08:29:20.571Z,68.73
2022-09-13T08:31:48.849Z,68.31
2022-09-13T08:34:18.118Z,68.74
2022-09-13T08:36:46.425Z,68.90
2022-09-13T08:39:16.232Z,67.36
2022-09-13T08:42:05.181Z,66.48
2022-09-13T08:44:37.305Z,67.19
2022-09-13T08:47:28.283Z,66.62
2022-09-13T08:50:05.755Z,66.84
2022-09-13T08:52:42.156Z,66.83
2022-09-13T08:55:27.061Z,66.88
2022-09-13T08:58:02.459Z,67.18
2022-09-13T09:00:36.391Z,66.44
2022-09-13T09:03:21.886Z,66.65
2022-09-13T09:05:52.402Z,66.59
2022-09-13T09:08:33.875Z,65.73
2022-09-13T09:11:12.153Z,63.14
2022-09-13T09:13:51.696Z,62.83
2022-09-13T09:16:33.494Z,64.04
2022-09-13T09:19:19.271Z,63.54
2022-09-13T09:21:51.133Z,63.28
2022-09-13T09:24:24.068Z,64.00
2022-09-13T09:26:54.989Z,64.34
2022-09-13T09:29:26.945Z,64.36
2022-09-13T09:32:09.455Z,64.92
2022-09-13T09:34:58.857Z,65.45
2022-09-13T09:37:30.684Z,64.58
2022-09-13T09:40:03.896Z,64.30
2022-09-13T09:42:43.899Z,64.72
2022-09-13T09:45:28.061Z,65.29
2022-09-13T09:48:02.268Z,64.64
2022-09-13T09:50:36.410Z,64.09
2022-09-13T09:53:09.836Z,62.98
2022-09-13T09:55:45.662Z,62.50
2022-09-13T09:58:16.793Z,62.66
2022-09-13T10:00:54.747Z,61.72
2022-09-13T10:03:28.515Z,62.23
2022-09-13T10:06:07.714Z,62.17
2022-09-13T10:08:39.500Z,61.92
2022-09-13T10:11:09.211Z,60.37
2022-09-13T10:13:39.271Z,60.52
2022-09-13T10:16:24.735Z,60.86
2022-09-13T10:18:53.117Z,60.75
2022-09-13T10:21:28.211Z,60.65
2022-09-13T10:24:22.698Z,60.81
2022-09-13T10:26:51.044Z,61.28
2022-09-13T10:29:20.813Z,61.57
2022-09-13T10:31:53.638Z,60.71
2022-09-13T10:34:24.480Z,59.64
2022-09-13T10:36:58.420Z,58.77
2022-09-13T10:39:28.808Z,58.91
2022-09-13T10:42:00.984Z,58.77
2022-09-13T10:44:35.372Z,58.90
2022-09-13T10:47:08.069Z,57.76
2022-09-13T10:49:44.103Z,56.53
2022-09-13T10:52:35.108Z,53.57
2022-09-13T10:55:27.385Z,53.38
2022-09-13T10:57:57.447Z,53.31
2022-09-13T11:00:40.370Z,54.18
2022-09-13T11:03:31.009Z,54.27
2022-09-13T11:06:11.010Z,53.63
2022-09-13T11:08:49.563Z,54.39
2022-09-13T11:11:25.303Z,53.04
2022-09-13T11:14:16.757Z,50.95
2022-09-13T11:16:59.734Z,50.93
2022-09-13T11:19:56.743Z,51.93
2022-09-13T11:22:58.967Z,49.93
2022-09-13T11:25:47.730Z,48.57
2022-09-13T11:28:27.180Z,50.45
2022-09-13T11:31:16.428Z,49.77
2022-09-13T11:34:04.277Z,49.93
2022-09-13T11:37:01.462Z,49.63
2022-09-13T11:39:34.012Z,49.00
2022-09-13T11:42:21.721Z,49.45
2022-09-13T11:45:20.743Z,49.36
2022-09-13T11:48:24.331Z,47.83
2022-09-13T11:51:05.236Z,47.40
2022-09-13T11:53:59.408Z,45.39
2022-09-13T11:56:34.457Z,43.70
2022-09-13T11:59:17.987Z,43.24
2022-09-13T12:01:51.167Z,43.75
2022-09-13T12:04:30.505Z,44.68
2022-09-13T12:07:10.364Z,43.18
2022-09-13T12:09:47.784Z,43.27
2022-09-13T12:12:16.604Z,43.22
2022-09-13T12:14:58.415Z,42.93
2022-09-13T12:17:31.960Z,39.29
2022-09-13T12:20:03.968Z,40.55
2022-09-13T12:22:36.420Z,39.29
2022-09-13T12:25:19.561Z,37.73
2022-09-13T12:27:56.792Z,37.73
2022-09-13T12:30:31.704Z,38.59
2022-09-13T12:33:00.199Z,37.04
2022-09-13T12:35:33.513Z,36.80
2022-09-13T12:38:31.477Z,38.15
2022-09-13T12:41:16.917Z,37.67
2022-09-13T12:44:19.988Z,39.41
2022-09-13T12:47:23.127Z,37.81
2022-09-13T12:50:48.198Z,37.63
2022-09-13T12:53:53.206Z,38.05
2022-09-13T12:56:44.781Z,36.53
2022-09-13T13:00:00.772Z,34.90
2022-09-13T13:02:35.788Z,34.67
2022-09-13T13:05:07.670Z,35.26
2022-09-13T13:07:39.047Z,33.60
2022-09-13T13:10:27.947Z,33.42
2022-09-13T13:12:56.270Z,33.54
2022-09-13T13:16:05.397Z,33.08
2022-09-13T13:18:48.419Z,33.07
2022-09-13T13:21:37.133Z,34.11
2022-09-13T13:24:42.509Z,33.01
2022-09-13T13:27:48.450Z,33.16
2022-09-13T13:30:55.117Z,33.04
2022-09-13T13:33:29.328Z,32.89
2022-09-13T13:35:57.459Z,32.70
2022-09-13T13:38:48.138Z,32.68
2022-09-13T13:41:48.878Z,31.21
2022-09-13T13:45:14.850Z,32.36
2022-09-13T13:48:19.532Z,31.41
2022-09-13T13:51:26.070Z,28.50
2022-09-13T13:54:04.442Z,29.25
2022-09-13T13:56:49.445Z,29.00
2022-09-13T13:59:29.375Z,29.40
2022-09-13T14:02:01.751Z,29.64
2022-09-13T14:05:05.338Z,29.21
2022-09-13T14:08:19.264Z,29.84
2022-09-13T14:10:55.728Z,30.09
2022-09-13T14:13:43.322Z,29.63
2022-09-13T14:16:26.093Z,29.16
2022-09-13T14:19:28.321Z,28.66
2022-09-13T14:22:16.962Z,28.61
2022-09-13T14:24:48.704Z,28.73
2022-09-13T14:27:21.177Z,27.94
2022-09-13T14:29:52.268Z,27.56
2022-09-13T14:32:23.678Z,27.97
2022-09-13T14:34:59.764Z,28.11
2022-09-13T14:37:33.091Z,27.86
2022-09-13T14:40:10.196Z,27.18
2022-09-13T14:42:43.740Z,26.58
2022-09-13T14:45:17.390Z,26.58
2022-09-13T14:47:54.693Z,26.52
2022-09-13T14:50:28.434Z,26.72
2022-09-13T14:52:59.613Z,26.68
2022-09-13T14:55:33.806Z,26.29
2022-09-13T14:58:07.092Z,26.71
2022-09-13T15:00:51.443Z,25.24
2022-09-13T15:03:19.784Z,25.06
2022-09-13T15:05:56.940Z,25.93
2022-09-13T15:08:46.658Z,25.91
2022-09-13T15:11:31.039Z,25.44
2022-09-13T15:14:26.138Z,25.86
2022-09-13T15:17:00.654Z,24.86
2022-09-13T15:19:32.917Z,24.93
2022-09-13T15:22:14.631Z,24.68
2022-09-13T15:24:48.253Z,24.98
2022-09-13T15:27:27.450Z,25.31
2022-09-13T15:29:58.819Z,25.70
2022-09-13T15:32:35.600Z,25.99
2022-09-13T15:35:04.001Z,26.10
2022-09-13T15:37:37.549Z,26.51
2022-09-13T15:40:19.992Z,27.19
2022-09-13T15:42:50.682Z,27.59
2022-09-13T15:45:20.965Z,28.90
2022-09-13T15:47:51.392Z,29.82
2022-09-13T15:50:24.777Z,30.77
2022-09-13T15:52:55.109Z,31.16
2022-09-13T15:55:24.027Z,31.77
2022-09-13T15:57:53.082Z,31.99
2022-09-13T16:00:24.283Z,32.56
2022-09-13T16:02:53.267Z,32.82
2022-09-13T16:05:21.738Z,33.16
2022-09-13T16:07:50.155Z,33.64
2022-09-13T16:10:23.295Z,33.82
2022-09-13T16:12:51.574Z,34.17
2022-09-13T16:15:20.043Z,33.85
2022-09-13T16:17:48.704Z,34.07
2022-09-13T16:20:18.157Z,34.58
2022-09-13T16:22:46.487Z,35.15
2022-09-13T16:25:15.993Z,35.24
2022-09-13T16:27:45.863Z,34.87
2022-09-13T16:30:16.902Z,35.18
2022-09-13T16:32:45.658Z,35.37
2022-09-13T16:35:15.780Z,35.69
2022-09-13T16:37:44.848Z,35.83
2022-09-13T16:40:13.563Z,35.87
2022-09-13T16:42:41.950Z,36.27
2022-09-13T16:45:13.060Z,36.05
2022-09-13T16:47:42.308Z,36.52
2022-09-13T16:50:11.597Z,36.88
2022-09-13T16:52:40.116Z,36.69
2022-09-13T16:55:09.380Z,36.39
2022-09-13T16:57:38.285Z,36.57
2022-09-13T17:00:11.497Z,37.01
2022-09-13T17:02:41.307Z,37.04
2022-09-13T17:05:11.058Z,37.16
2022-09-13T17:07:39.627Z,37.67
2022-09-13T17:10:09.877Z,37.41
2022-09-13T17:12:38.179Z,37.17
2022-09-13T17:15:08.395Z,38.04
2022-09-13T17:17:36.917Z,37.94
2022-09-13T17:20:11.984Z,38.15
2022-09-13T17:22:41.036Z,37.53
2022-09-13T17:25:10.480Z,38.18
2022-09-13T17:27:38.953Z,38.02
2022-09-13T17:30:12.363Z,38.06
2022-09-13T17:32:40.775Z,38.11
2022-09-13T17:35:11.988Z,38.21
2022-09-13T17:37:40.357Z,38.04
2022-09-13T17:40:09.599Z,38.18
2022-09-13T17:42:37.917Z,38.13
2022-09-13T17:45:07.244Z,38.21
2022-09-13T17:47:35.524Z,38.73
2022-09-13T17:50:04.034Z,38.44
2022-09-13T17:52:35.194Z,38.77
2022-09-13T17:55:03.831Z,38.93
2022-09-13T17:57:32.189Z,38.42
2022-09-13T18:00:00.906Z,39.10
2022-09-13T18:02:29.582Z,39.06
2022-09-13T18:04:59.594Z,38.86
2022-09-13T18:07:30.645Z,39.42
2022-09-13T18:10:00.344Z,39.35
2022-09-13T18:12:28.850Z,39.76
2022-09-13T18:14:57.884Z,39.52
2022-09-13T18:17:26.488Z,39.87
2022-09-13T18:19:55.021Z,40.01
2022-09-13T18:22:23.661Z,39.80
2022-09-13T18:24:52.652Z,40.27
2022-09-13T18:27:22.500Z,40.57
2022-09-13T18:29:51.373Z,40.74
2022-09-13T18:32:20.087Z,40.64
2022-09-13T18:34:48.604Z,41.03
2022-09-13T18:37:17.118Z,41.09
2022-09-13T18:39:46.006Z,41.26
2022-09-13T18:42:14.704Z,42.01
2022-09-13T18:44:44.580Z,42.45
2022-09-13T18:47:13.070Z,42.65
2022-09-13T18:49:41.489Z,42.81
2022-09-13T18:52:11.159Z,43.00
2022-09-13T18:54:40.178Z,43.28
2022-09-13T18:57:09.423Z,43.54
2022-09-13T18:59:37.792Z,43.74
2022-09-13T19:02:07.521Z,44.35
2022-09-13T19:04:37.066Z,44.43
2022-09-13T19:07:06.582Z,44.49
2022-09-13T19:09:35.854Z,44.77
2022-09-13T19:12:04.801Z,44.87
2022-09-13T19:14:33.692Z,45.01
2022-09-13T19:17:02.947Z,45.13
2022-09-13T19:19:33.713Z,45.34
2022-09-13T19:22:02.032Z,45.59
2022-09-13T19:24:31.341Z,45.64
2022-09-13T19:27:02.348Z,46.10
2022-09-13T19:29:30.647Z,46.46
2022-09-13T19:31:58.937Z,46.47
2022-09-13T19:34:27.204Z,46.22
2022-09-13T19:36:58.513Z,45.97
2022-09-13T19:39:29.973Z,46.35
2022-09-13T19:42:00.806Z,46.07
2022-09-13T19:44:29.905Z,46.28
2022-09-13T19:47:36.095Z,46.47
2022-09-13T19:49:49.468Z,46.29
2022-09-13T19:52:19.206Z,46.31
2022-09-13T19:54:47.505Z,46.00
2022-09-13T19:57:15.750Z,46.40
2022-09-13T19:59:44.936Z,46.23
2022-09-13T20:02:14.916Z,46.14
2022-09-13T20:04:43.260Z,45.97
2022-09-13T20:07:13.327Z,46.27
2022-09-13T20:09:46.776Z,46.44
2022-09-13T20:12:15.520Z,46.20
2022-09-13T20:14:43.883Z,46.34
2022-09-13T20:17:12.143Z,46.04
2022-09-13T20:19:43.847Z,46.03
2022-09-13T20:22:13.275Z,46.26
2022-09-13T20:24:43.157Z,46.31
2022-09-13T20:27:11.545Z,46.43
2022-09-13T20:29:40.334Z,46.44
2022-09-13T20:32:09.426Z,46.55
2022-09-13T20:34:39.250Z,46.53
2022-09-13T20:37:07.641Z,47.09
2022-09-13T20:39:36.195Z,46.80
2022-09-13T20:42:06.448Z,47.08
2022-09-13T20:44:34.661Z,47.46
2022-09-13T20:47:03.142Z,47.66
2022-09-13T20:49:31.358Z,47.74
2022-09-13T20:51:59.923Z,48.11
2022-09-13T20:54:28.261Z,48.82
2022-09-13T20:56:56.655Z,48.57
2022-09-13T20:59:26.526Z,49.57
2022-09-13T21:01:54.829Z,49.46
2022-09-13T21:04:23.344Z,49.78
2022-09-13T21:07:15.033Z,49.96
2022-09-13T21:09:43.532Z,50.09
2022-09-13T21:12:11.871Z,50.74
2022-09-13T21:14:41.470Z,50.88
2022-09-13T21:17:09.975Z,51.21
2022-09-13T21:19:38.350Z,51.23
2022-09-13T21:22:06.762Z,51.76
2022-09-13T21:24:35.116Z,51.68
2022-09-13T21:27:03.688Z,52.02
2022-09-13T21:29:32.100Z,52.29
2022-09-13T21:32:02.029Z,52.47
2022-09-13T21:34:30.467Z,52.68
2022-09-13T21:36:58.842Z,52.62
2022-09-13T21:39:27.134Z,52.99
2022-09-13T21:41:55.683Z,52.83
2022-09-13T21:44:24.420Z,52.99
2022-09-13T21:46:52.758Z,53.50
2022-09-13T21:49:22.886Z,53.49
2022-09-13T21:51:55.067Z,53.83
2022-09-13T21:54:23.563Z,54.04
2022-09-13T21:56:54.818Z,54.96
2022-09-13T21:59:24.443Z,55.06
2022-09-13T22:01:54.206Z,55.17
2022-09-13T22:04:27.203Z,55.87
2022-09-13T22:06:56.302Z,55.88
2022-09-13T22:09:27.570Z,55.89
2022-09-13T22:11:57.293Z,55.77
2022-09-13T22:14:26.521Z,55.65
2022-09-13T22:16:55.039Z,55.02
2022-09-13T22:19:27.108Z,55.46
2022-09-13T22:21:58.852Z,55.64
2022-09-13T22:24:31.898Z,55.80
2022-09-13T22:27:00.573Z,55.71
2022-09-13T22:29:29.439Z,56.11
2022-09-13T22:31:57.755Z,56.29
2022-09-13T22:34:30.763Z,57.09
2022-09-13T22:37:00.231Z,56.80
2022-09-13T22:39:28.712Z,56.76
2022-09-13T22:41:56.994Z,56.60
2022-09-13T22:44:25.325Z,56.71
2022-09-13T22:46:53.546Z,56.54
2022-09-13T22:49:22.024Z,56.39
2022-09-13T22:51:51.664Z,56.40
2022-09-13T22:54:20.694Z,56.67
2022-09-13T22:56:49.104Z,57.12
2022-09-13T22:59:20.290Z,57.07
2022-09-13T23:01:49.765Z,57.19
2022-09-13T23:04:18.952Z,57.42
2022-09-13T23:06:47.813Z,57.70
2022-09-13T23:09:19.583Z,57.72
2022-09-13T23:11:48.680Z,57.67
2022-09-13T23:14:19.893Z,58.57
2022-09-13T23:16:51.412Z,58.63
2022-09-13T23:19:23.042Z,59.27
2022-09-13T23:21:54.282Z,59.90
2022-09-13T23:24:24.752Z,60.32
2022-09-13T23:26:56.785Z,60.29
2022-09-13T23:29:25.377Z,60.67
2022-09-13T23:31:53.741Z,60.56
2022-09-13T23:34:22.506Z,60.64
2022-09-13T23:36:51.241Z,60.31
2022-09-13T23:39:21.036Z,60.66
2022-09-13T23:41:51.885Z,60.19
2022-09-13T23:44:20.544Z,60.79
2022-09-13T23:46:48.836Z,60.97
2022-09-13T23:49:17.300Z,60.89
2022-09-13T23:51:46.692Z,60.60
2022-09-13T23:54:15.801Z,60.41
2022-09-13T23:56:44.846Z,60.05
2022-09-13T23:59:14.913Z,59.97
